Time;durP1;ratioP1;P1;durP2;ratioP2;P2;SDS_P1;SDS_P2;PMS_P1;PMS_P2;Temp;Humidity;BMP_temperature;BMP_pressure;BME280_temperature;BME280_humidity;BME280_pressure;Samples;Min_cycle;Max_cycle;Signal;HPM_P1;HPM_P2
2021/05/23 00:00:38;;;;;;;9.30;8.00;;;9.10;1.00;;;;;;5053677;28;20585;-60
2021/05/23 00:03:07;;;;;;;8.43;7.60;;;9.00;1.00;;;;;;5052835;28;20186;-60
2021/05/23 00:05:33;;;;;;;8.13;7.43;;;9.00;1.00;;;;;;5052694;28;20439;-60
2021/05/23 00:08:04;;;;;;;8.93;8.10;;;8.90;1.00;;;;;;5053358;28;21278;-59
2021/05/23 00:10:32;;;;;;;9.33;8.30;;;8.90;1.00;;;;;;5051972;28;20193;-59
2021/05/23 00:13:00;;;;;;;9.90;8.90;;;8.80;1.00;;;;;;5053293;28;20450;-60
2021/05/23 00:15:30;;;;;;;9.50;8.50;;;8.70;1.00;;;;;;5040672;28;20929;-60
2021/05/23 00:17:56;;;;;;;9.43;8.50;;;8.70;1.00;;;;;;5051567;28;20467;-60
2021/05/23 00:20:24;;;;;;;11.20;8.27;;;8.70;1.00;;;;;;5052502;28;20428;-59
2021/05/23 00:22:49;;;;;;;10.67;9.57;;;8.70;1.00;;;;;;5053426;28;20189;-60
2021/05/23 00:25:19;;;;;;;12.60;9.67;;;8.70;1.00;;;;;;5052058;28;20431;-56
2021/05/23 00:27:45;;;;;;;13.63;11.13;;;8.70;1.00;;;;;;5052451;28;20240;-54
2021/05/23 00:30:12;;;;;;;13.00;11.57;;;8.70;1.00;;;;;;5050801;28;20427;-59
2021/05/23 00:32:38;;;;;;;13.83;12.43;;;8.60;1.00;;;;;;5053067;28;20815;-59
2021/05/23 00:35:04;;;;;;;13.40;11.30;;;8.50;1.00;;;;;;5052622;28;20500;-60
2021/05/23 00:37:30;;;;;;;10.53;9.43;;;8.50;1.00;;;;;;5052785;28;20841;-60
2021/05/23 00:39:55;;;;;;;9.80;8.90;;;8.50;1.00;;;;;;5052785;28;20449;-60
2021/05/23 00:42:21;;;;;;;10.10;8.83;;;8.40;1.00;;;;;;5053118;28;20199;-58
2021/05/23 00:44:47;;;;;;;10.23;9.23;;;8.40;1.00;;;;;;5046468;28;20240;-60
2021/05/23 00:47:12;;;;;;;9.33;8.43;;;8.30;1.00;;;;;;5045434;28;20199;-60
2021/05/23 00:49:38;;;;;;;10.53;9.17;;;8.40;1.00;;;;;;5050357;28;20182;-60
2021/05/23 00:52:07;;;;;;;9.60;8.70;;;8.40;1.00;;;;;;5050891;28;20207;-60
2021/05/23 00:54:34;;;;;;;8.90;7.87;;;8.30;1.00;;;;;;5049381;28;20288;-60
2021/05/23 00:57:00;;;;;;;9.80;8.80;;;8.30;1.00;;;;;;5050868;28;20497;-60
2021/05/23 00:59:25;;;;;;;9.20;8.30;;;8.30;1.00;;;;;;5050031;28;20415;-60
2021/05/23 01:01:54;;;;;;;7.73;6.93;;;8.30;3.70;;;;;;5044687;28;20423;-60
2021/05/23 01:04:20;;;;;;;7.80;6.93;;;8.20;10.80;;;;;;5049061;28;20628;-59
2021/05/23 01:06:45;;;;;;;7.10;6.50;;;8.20;11.60;;;;;;5050706;28;20498;-60
2021/05/23 01:09:11;;;;;;;6.97;6.20;;;8.20;11.40;;;;;;5050736;28;20515;-63
2021/05/23 01:11:40;;;;;;;8.10;7.20;;;8.20;10.70;;;;;;5049579;28;20189;-63
2021/05/23 01:14:41;;;;;;;9.30;7.20;;;8.10;13.40;;;;;;5050528;28;20174;-59
2021/05/23 01:17:09;;;;;;;7.87;7.17;;;8.20;18.10;;;;;;5013459;28;20484;-60
2021/05/23 01:20:17;;;;;;;9.00;6.77;;;8.10;21.00;;;;;;5050441;28;20857;-59
2021/05/23 01:23:06;;;;;;;8.97;7.67;;;8.10;23.50;;;;;;5018890;28;20431;-59
2021/05/23 01:25:31;;;;;;;8.80;7.90;;;8.00;25.20;;;;;;5049143;28;20461;-59
2021/05/23 01:27:57;;;;;;;7.53;6.70;;;8.00;31.50;;;;;;5050172;28;20933;-60
2021/05/23 01:30:27;;;;;;;8.03;7.23;;;8.10;29.30;;;;;;5048610;28;20177;-59
2021/05/23 01:32:57;;;;;;;7.70;7.00;;;8.00;30.20;;;;;;5050264;28;20543;-59
2021/05/23 01:35:34;;;;;;;9.10;6.97;;;8.00;30.20;;;;;;5048522;28;20431;-59
2021/05/23 01:38:01;;;;;;;7.30;6.30;;;8.00;35.40;;;;;;5046977;28;20474;-60
2021/05/23 01:40:29;;;;;;;8.97;6.03;;;8.00;39.50;;;;;;5050158;28;20447;-59
2021/05/23 01:42:56;;;;;;;7.00;6.33;;;8.00;38.80;;;;;;5049126;28;20441;-59
2021/05/23 01:45:22;;;;;;;6.10;5.60;;;8.00;38.10;;;;;;5049529;28;20988;-59
2021/05/23 01:47:48;;;;;;;5.50;4.90;;;8.00;38.20;;;;;;5049265;28;20898;-59
2021/05/23 01:50:14;;;;;;;7.20;5.80;;;8.00;34.60;;;;;;5049673;28;20465;-60
2021/05/23 01:52:48;;;;;;;6.23;5.13;;;8.10;33.40;;;;;;5041956;28;20452;-59
2021/05/23 01:55:14;;;;;;;5.40;4.90;;;8.10;30.40;;;;;;5051633;28;20442;-60
2021/05/23 01:57:39;;;;;;;12.93;4.57;;;8.10;26.20;;;;;;5057054;28;20838;-59
2021/05/23 02:00:06;;;;;;;4.87;4.40;;;8.00;27.70;;;;;;5049526;28;20470;-60
2021/05/23 02:02:31;;;;;;;5.57;4.90;;;8.10;26.70;;;;;;5048630;28;20185;-62
2021/05/23 02:04:57;;;;;;;7.63;4.83;;;8.20;24.60;;;;;;5048775;28;20425;-60
2021/05/23 02:07:22;;;;;;;5.57;4.90;;;8.20;22.00;;;;;;5048399;28;20188;-60
2021/05/23 02:09:48;;;;;;;4.83;4.23;;;8.20;22.40;;;;;;5049403;28;20199;-60
2021/05/23 02:12:13;;;;;;;5.53;4.80;;;8.30;23.60;;;;;;5048822;28;20537;-61
2021/05/23 02:14:39;;;;;;;5.20;4.30;;;8.30;23.10;;;;;;5049477;28;20193;-60
2021/05/23 02:17:04;;;;;;;4.40;4.00;;;8.30;22.80;;;;;;5054004;28;20206;-63
2021/05/23 02:19:30;;;;;;;4.90;4.10;;;8.40;20.30;;;;;;5049928;28;20192;-64
2021/05/23 02:21:55;;;;;;;4.80;4.20;;;8.40;13.20;;;;;;5049271;28;20192;-59
2021/05/23 02:24:22;;;;;;;4.50;4.10;;;8.50;12.30;;;;;;5048234;28;20184;-60
2021/05/23 02:26:48;;;;;;;4.80;4.20;;;8.50;6.60;;;;;;5049086;28;20651;-60
2021/05/23 02:29:15;;;;;;;5.00;4.50;;;8.50;1.40;;;;;;5048381;28;20432;-60
2021/05/23 02:31:40;;;;;;;4.93;4.43;;;8.40;11.90;;;;;;5048262;28;20188;-59
2021/05/23 02:34:06;;;;;;;8.33;4.13;;;8.40;13.30;;;;;;5048217;28;21004;-60
2021/05/23 02:36:32;;;;;;;4.97;4.37;;;8.50;13.00;;;;;;5049107;28;20204;-58
2021/05/23 02:38:57;;;;;;;6.80;4.77;;;8.50;11.50;;;;;;5048235;28;20222;-60
2021/05/23 02:41:23;;;;;;;5.63;4.10;;;8.50;10.30;;;;;;5049021;28;20513;-60
2021/05/23 02:43:48;;;;;;;4.90;4.13;;;8.60;7.20;;;;;;5048734;28;20543;-60
2021/05/23 02:46:14;;;;;;;4.13;3.80;;;8.60;5.40;;;;;;5048807;28;20185;-60
2021/05/23 02:48:39;;;;;;;4.90;4.40;;;8.60;1.00;;;;;;5047692;28;20219;-59
2021/05/23 02:51:05;;;;;;;4.33;3.73;;;8.60;1.00;;;;;;5048445;28;20692;-60
2021/05/23 02:53:31;;;;;;;5.30;4.00;;;8.60;1.00;;;;;;5047666;28;20204;-60
2021/05/23 02:55:57;;;;;;;4.37;3.97;;;8.70;1.00;;;;;;5057804;28;20203;-60
2021/05/23 02:58:23;;;;;;;4.60;4.20;;;8.70;1.00;;;;;;5042947;28;20894;-60
2021/05/23 03:00:48;;;;;;;4.00;3.53;;;8.70;1.00;;;;;;5048742;28;20465;-58
2021/05/23 03:03:15;;;;;;;7.43;4.30;;;8.80;1.00;;;;;;5047768;28;20196;-59
2021/05/23 03:05:43;;;;;;;3.73;3.43;;;8.90;1.00;;;;;;5048730;28;20178;-56
2021/05/23 03:08:09;;;;;;;5.20;4.37;;;8.90;1.00;;;;;;5047775;28;20434;-60
2021/05/23 03:10:44;;;;;;;4.23;3.83;;;9.00;1.00;;;;;;5048418;28;20503;-60
2021/05/23 03:13:10;;;;;;;3.80;3.50;;;9.00;1.00;;;;;;5046053;28;20424;-60
2021/05/23 03:15:37;;;;;;;3.70;3.40;;;9.10;1.00;;;;;;5047053;28;20445;-60
2021/05/23 03:18:03;;;;;;;4.23;3.83;;;9.10;1.00;;;;;;5046721;28;20554;-60
2021/05/23 03:20:30;;;;;;;3.80;3.40;;;9.10;1.00;;;;;;5047926;28;20440;-59
2021/05/23 03:22:57;;;;;;;5.83;3.33;;;9.10;1.00;;;;;;5049057;28;20492;-60
2021/05/23 03:25:25;;;;;;;4.03;3.47;;;9.20;1.00;;;;;;5048738;28;21384;-59
2021/05/23 03:27:51;;;;;;;3.40;3.10;;;9.30;1.00;;;;;;5048212;28;20804;-59
2021/05/23 03:30:26;;;;;;;3.17;2.90;;;9.30;1.00;;;;;;5047813;28;20522;-59
2021/05/23 03:32:52;;;;;;;3.30;3.00;;;9.30;1.00;;;;;;5036045;28;20411;-59
2021/05/23 03:35:18;;;;;;;4.30;3.00;;;9.40;1.00;;;;;;5054267;28;20436;-59
2021/05/23 03:37:44;;;;;;;3.63;3.07;;;9.40;1.00;;;;;;5048414;28;20555;-59
2021/05/23 03:40:15;;;;;;;3.73;3.13;;;9.50;1.00;;;;;;5047594;28;20416;-59
2021/05/23 03:42:41;;;;;;;5.07;3.17;;;9.50;1.00;;;;;;5048565;28;20440;-59
2021/05/23 03:45:08;;;;;;;3.17;2.87;;;9.50;1.00;;;;;;5047326;28;20472;-59
2021/05/23 03:47:34;;;;;;;3.13;2.93;;;9.60;1.00;;;;;;5048293;28;20447;-59
2021/05/23 03:50:00;;;;;;;2.87;2.57;;;9.60;1.00;;;;;;5048185;28;20515;-60
2021/05/23 03:52:26;;;;;;;3.90;3.13;;;9.60;1.00;;;;;;5048353;28;20554;-61
2021/05/23 03:54:51;;;;;;;2.80;2.60;;;9.70;1.00;;;;;;5047583;28;20252;-59
2021/05/23 03:57:17;;;;;;;2.97;2.63;;;9.70;1.00;;;;;;5058060;28;20205;-59
2021/05/23 03:59:42;;;;;;;2.60;2.40;;;9.70;1.00;;;;;;5047333;28;20185;-61
2021/05/23 04:02:08;;;;;;;3.00;2.50;;;9.70;1.00;;;;;;5049958;28;20174;-59
2021/05/23 04:04:52;;;;;;;3.30;2.80;;;9.70;1.00;;;;;;5050514;28;20182;-59
2021/05/23 04:07:19;;;;;;;2.80;2.50;;;9.80;1.00;;;;;;5050834;28;20173;-59
2021/05/23 04:09:46;;;;;;;2.57;2.37;;;9.80;1.00;;;;;;5051765;28;21196;-60
2021/05/23 04:12:22;;;;;;;3.80;2.33;;;9.90;1.00;;;;;;5050954;28;20420;-59
2021/05/23 04:14:47;;;;;;;4.83;2.70;;;9.90;1.00;;;;;;5050348;28;20523;-59
2021/05/23 04:17:13;;;;;;;4.03;2.67;;;10.00;1.00;;;;;;5050738;28;20554;-59
2021/05/23 04:19:38;;;;;;;2.70;2.50;;;10.00;1.00;;;;;;5051128;28;20649;-62
2021/05/23 04:22:04;;;;;;;3.93;2.43;;;10.10;99.90;;;;;;5050473;28;20530;-59
2021/05/23 04:24:33;;;;;;;2.67;2.47;;;10.20;99.90;;;;;;5051639;28;20589;-59
2021/05/23 04:27:01;;;;;;;2.53;2.30;;;10.30;99.90;;;;;;5050488;28;20182;-59
2021/05/23 04:29:27;;;;;;;2.50;2.30;;;10.40;99.90;;;;;;5051384;28;20412;-62
2021/05/23 04:31:53;;;;;;;2.53;2.33;;;10.50;99.90;;;;;;5038920;28;20433;-59
2021/05/23 04:34:18;;;;;;;2.33;2.17;;;10.50;99.90;;;;;;5051279;28;20181;-59
2021/05/23 04:36:44;;;;;;;3.03;2.10;;;10.60;64.10;;;;;;5056625;28;20193;-59
2021/05/23 04:39:09;;;;;;;2.60;2.17;;;10.70;1.00;;;;;;5051447;28;20174;-58
2021/05/23 04:41:35;;;;;;;2.70;2.50;;;10.80;1.00;;;;;;5051100;28;20632;-59
2021/05/23 04:44:01;;;;;;;2.80;2.60;;;10.90;1.00;;;;;;5050549;28;20225;-59
2021/05/23 04:46:26;;;;;;;2.70;2.50;;;11.00;1.00;;;;;;5054384;28;20264;-62
2021/05/23 04:48:52;;;;;;;2.57;2.13;;;11.10;1.00;;;;;;5051106;28;20680;-59
2021/05/23 04:51:17;;;;;;;3.50;2.87;;;11.10;1.00;;;;;;5050315;28;21014;-59
2021/05/23 04:53:43;;;;;;;2.50;2.30;;;11.10;1.00;;;;;;5050947;28;20431;-59
2021/05/23 04:56:09;;;;;;;2.77;2.37;;;11.20;1.00;;;;;;5050759;28;20182;-60
2021/05/23 04:58:34;;;;;;;3.00;2.70;;;11.30;99.90;;;;;;5049311;28;20528;-60
2021/05/23 05:01:00;;;;;;;2.50;2.30;;;11.40;94.10;;;;;;5048929;28;20181;-60
2021/05/23 05:03:25;;;;;;;3.70;3.00;;;11.50;2.70;;;;;;5050818;28;20174;-60
2021/05/23 05:05:51;;;;;;;5.07;2.30;;;11.50;1.00;;;;;;5049618;28;20178;-60
2021/05/23 05:08:16;;;;;;;2.73;2.40;;;11.60;99.90;;;;;;5050319;28;20181;-60
2021/05/23 05:10:42;;;;;;;2.50;2.30;;;11.60;1.00;;;;;;5049765;28;20186;-60
2021/05/23 05:13:07;;;;;;;3.03;2.83;;;11.70;99.90;;;;;;5050501;28;20174;-60
2021/05/23 05:15:33;;;;;;;2.80;2.60;;;11.80;99.90;;;;;;5050381;28;20189;-60
2021/05/23 05:17:59;;;;;;;2.63;2.40;;;11.90;99.90;;;;;;5049796;28;20220;-60
2021/05/23 05:20:26;;;;;;;3.30;3.00;;;11.80;99.90;;;;;;5050110;28;20182;-60
2021/05/23 05:22:52;;;;;;;2.70;2.47;;;11.80;99.90;;;;;;5050284;28;20654;-60
2021/05/23 05:25:19;;;;;;;2.70;2.50;;;11.90;99.90;;;;;;5049410;28;20431;-60
2021/05/23 05:27:44;;;;;;;2.70;2.50;;;12.00;99.90;;;;;;5050017;28;20420;-60
2021/05/23 05:30:10;;;;;;;2.87;2.60;;;12.20;1.00;;;;;;5049509;28;20747;-60
2021/05/23 05:32:36;;;;;;;2.53;2.33;;;12.30;1.00;;;;;;5048950;28;20190;-59
2021/05/23 05:35:02;;;;;;;2.13;1.93;;;12.60;99.90;;;;;;5050322;28;20417;-60
2021/05/23 05:37:28;;;;;;;3.53;2.40;;;12.80;1.00;;;;;;5061672;28;20279;-60
2021/05/23 05:39:53;;;;;;;2.50;2.30;;;12.90;99.90;;;;;;5046316;28;20428;-60
2021/05/23 05:42:20;;;;;;;3.07;2.00;;;13.10;1.00;;;;;;5049880;28;20187;-59
2021/05/23 05:44:45;;;;;;;2.67;2.47;;;13.50;1.00;;;;;;5050047;28;20703;-59
2021/05/23 05:47:11;;;;;;;2.40;2.20;;;13.70;99.90;;;;;;5049882;28;20417;-60
2021/05/23 05:49:37;;;;;;;2.10;2.00;;;13.70;90.10;;;;;;5049177;28;20188;-63
2021/05/23 05:52:03;;;;;;;2.13;2.03;;;13.80;29.00;;;;;;5049448;28;20198;-61
2021/05/23 05:54:29;;;;;;;2.33;2.17;;;13.90;1.00;;;;;;5049896;28;20732;-59
2021/05/23 05:56:55;;;;;;;2.50;2.30;;;13.90;1.00;;;;;;5052334;28;20466;-63
2021/05/23 05:59:20;;;;;;;2.07;1.97;;;13.90;1.00;;;;;;5044443;28;20179;-60
2021/05/23 06:01:46;;;;;;;2.40;2.20;;;14.00;1.00;;;;;;5042951;28;20181;-61
2021/05/23 06:04:11;;;;;;;2.80;2.60;;;14.00;1.00;;;;;;5049816;28;20185;-59
2021/05/23 06:06:37;;;;;;;2.33;2.23;;;14.00;1.00;;;;;;5049652;28;20191;-59
2021/05/23 06:09:02;;;;;;;3.30;2.40;;;14.20;1.00;;;;;;5048934;28;20168;-60
2021/05/23 06:11:28;;;;;;;3.07;2.40;;;14.30;1.00;;;;;;5049968;28;20180;-60
2021/05/23 06:13:53;;;;;;;2.43;2.30;;;14.30;1.00;;;;;;5049840;28;20261;-60
2021/05/23 06:16:19;;;;;;;3.63;2.60;;;14.50;1.00;;;;;;5049519;28;20742;-60
2021/05/23 06:18:45;;;;;;;2.67;2.53;;;14.50;1.00;;;;;;5047970;28;20203;-59
2021/05/23 06:21:11;;;;;;;2.63;2.43;;;14.60;1.00;;;;;;5048824;28;20828;-60
2021/05/23 06:23:37;;;;;;;2.53;2.33;;;14.70;1.00;;;;;;5048631;28;20400;-60
2021/05/23 06:26:03;;;;;;;2.40;2.30;;;14.70;1.00;;;;;;5047758;28;20813;-60
2021/05/23 06:28:29;;;;;;;2.70;2.50;;;14.80;1.00;;;;;;5048139;28;20170;-60
2021/05/23 06:30:54;;;;;;;2.53;2.33;;;14.80;1.00;;;;;;5047628;28;20577;-60
2021/05/23 06:33:20;;;;;;;2.73;2.53;;;14.90;1.00;;;;;;5048870;28;20265;-61
2021/05/23 06:35:46;;;;;;;3.43;2.50;;;14.90;1.00;;;;;;5048567;28;20178;-60
2021/05/23 06:38:11;;;;;;;2.30;2.20;;;15.00;1.00;;;;;;5047976;28;20206;-60
2021/05/23 06:40:37;;;;;;;3.23;2.47;;;15.00;1.00;;;;;;5048774;28;20178;-60
2021/05/23 06:43:02;;;;;;;4.67;2.93;;;15.10;1.00;;;;;;5048177;28;20188;-60
2021/05/23 06:45:28;;;;;;;2.67;2.47;;;15.10;1.00;;;;;;5048981;28;20233;-60
2021/05/23 06:47:54;;;;;;;4.13;2.60;;;15.20;1.00;;;;;;5046532;28;20197;-60
2021/05/23 06:50:19;;;;;;;2.43;2.23;;;15.30;1.00;;;;;;5049145;28;20408;-60
2021/05/23 06:52:45;;;;;;;2.93;2.50;;;15.30;1.00;;;;;;5046841;28;20970;-62
2021/05/23 06:55:11;;;;;;;2.43;2.23;;;15.40;1.00;;;;;;5049143;28;20579;-63
2021/05/23 06:57:37;;;;;;;2.37;2.27;;;15.40;1.00;;;;;;5047689;28;20595;-60
2021/05/23 07:00:07;;;;;;;2.50;2.30;;;15.20;1.00;;;;;;5043369;28;20413;-60
2021/05/23 07:02:32;;;;;;;2.50;2.40;;;15.10;1.00;;;;;;5046525;28;20182;-60
2021/05/23 07:04:58;;;;;;;2.53;2.43;;;15.30;1.00;;;;;;5049023;28;20779;-59
2021/05/23 07:07:23;;;;;;;3.33;2.57;;;15.20;1.00;;;;;;5048672;28;20177;-60
2021/05/23 07:09:49;;;;;;;2.40;2.30;;;15.30;1.00;;;;;;5049031;28;20186;-60
2021/05/23 07:12:14;;;;;;;2.67;2.57;;;15.30;1.00;;;;;;5048426;28;20211;-60
2021/05/23 07:14:40;;;;;;;2.30;2.20;;;15.30;1.00;;;;;;5048523;28;20228;-60
2021/05/23 07:17:05;;;;;;;2.50;2.30;;;15.30;1.00;;;;;;5047707;28;20294;-60
2021/05/23 07:19:31;;;;;;;2.70;2.30;;;15.40;1.00;;;;;;5048873;28;20636;-63
2021/05/23 07:21:57;;;;;;;2.27;2.17;;;15.50;1.00;;;;;;5049054;28;20166;-60
2021/05/23 07:24:22;;;;;;;2.40;2.30;;;15.70;1.00;;;;;;5047856;28;20198;-60
2021/05/23 07:26:48;;;;;;;2.47;2.37;;;15.80;99.90;;;;;;5048733;28;20232;-60
2021/05/23 07:29:13;;;;;;;2.77;2.60;;;15.80;1.00;;;;;;5038085;28;20181;-60
2021/05/23 07:31:39;;;;;;;5.33;2.87;;;16.00;99.90;;;;;;5066627;28;20263;-60
2021/05/23 07:34:04;;;;;;;2.50;2.40;;;16.20;99.90;;;;;;5068697;28;20201;-61
2021/05/23 07:36:30;;;;;;;2.40;2.30;;;16.30;99.90;;;;;;5063969;28;20314;-60
2021/05/23 07:38:56;;;;;;;3.07;2.53;;;16.50;99.90;;;;;;5052003;28;20177;-60
2021/05/23 07:41:23;;;;;;;2.67;2.50;;;16.60;99.90;;;;;;5051124;28;20195;-60
2021/05/23 07:43:48;;;;;;;4.87;2.60;;;16.60;99.90;;;;;;5052157;28;20390;-60
2021/05/23 07:46:14;;;;;;;2.70;2.47;;;16.70;99.90;;;;;;5052300;28;20414;-60
2021/05/23 07:48:40;;;;;;;2.83;2.57;;;16.70;99.90;;;;;;5066211;28;20329;-60
2021/05/23 07:51:05;;;;;;;2.53;2.43;;;16.70;99.90;;;;;;5073799;28;20223;-60
2021/05/23 07:53:31;;;;;;;2.90;2.67;;;16.90;99.90;;;;;;5066025;28;20207;-61
2021/05/23 07:55:57;;;;;;;2.80;2.60;;;17.00;99.90;;;;;;5053539;28;20178;-61
2021/05/23 07:58:23;;;;;;;2.37;2.27;;;17.00;99.90;;;;;;5047763;28;20227;-60
2021/05/23 08:00:49;;;;;;;2.50;2.30;;;17.00;99.90;;;;;;5052498;28;20715;-63
2021/05/23 08:03:15;;;;;;;2.60;2.50;;;16.80;99.90;;;;;;5053710;28;20442;-60
2021/05/23 08:05:40;;;;;;;2.43;2.30;;;16.60;99.90;;;;;;5052665;28;20210;-60
2021/05/23 08:08:06;;;;;;;2.70;2.50;;;16.70;99.90;;;;;;5053417;28;20184;-60
2021/05/23 08:10:32;;;;;;;2.23;2.13;;;16.70;99.90;;;;;;5052277;28;20283;-61
2021/05/23 08:12:58;;;;;;;2.00;1.90;;;16.70;99.90;;;;;;5053550;28;20655;-60
2021/05/23 08:15:23;;;;;;;2.30;2.10;;;16.70;99.90;;;;;;5053276;28;20423;-60
2021/05/23 08:17:53;;;;;;;2.73;2.60;;;16.90;99.90;;;;;;5053275;28;20304;-62
2021/05/23 08:20:20;;;;;;;2.43;2.23;;;16.90;99.90;;;;;;5052592;28;20179;-60
2021/05/23 08:22:46;;;;;;;2.53;2.33;;;17.20;99.90;;;;;;5053319;28;20452;-60
2021/05/23 08:25:12;;;;;;;2.30;2.20;;;17.00;99.90;;;;;;5050982;28;20514;-60
2021/05/23 08:27:38;;;;;;;2.40;2.30;;;16.90;99.90;;;;;;5052761;28;20249;-60
2021/05/23 08:30:04;;;;;;;2.80;2.60;;;16.80;99.90;;;;;;5042555;28;21014;-60
2021/05/23 08:32:30;;;;;;;5.10;2.60;;;16.80;99.90;;;;;;5053160;28;20195;-61
2021/05/23 08:34:55;;;;;;;2.60;2.40;;;17.00;99.90;;;;;;5051817;28;20524;-60
2021/05/23 08:37:21;;;;;;;3.03;2.50;;;17.10;99.90;;;;;;5051145;28;20213;-60
2021/05/23 08:39:47;;;;;;;2.53;2.37;;;16.90;99.90;;;;;;5051206;28;20182;-60
2021/05/23 08:42:12;;;;;;;2.50;2.30;;;17.00;99.90;;;;;;5051813;28;20231;-61
2021/05/23 08:44:38;;;;;;;2.27;2.17;;;17.10;99.90;;;;;;5051164;28;20714;-61
2021/05/23 08:47:04;;;;;;;2.50;2.40;;;17.20;99.90;;;;;;5051801;28;20208;-61
2021/05/23 08:49:30;;;;;;;4.80;2.57;;;17.20;99.90;;;;;;5050305;28;20224;-60
2021/05/23 08:51:56;;;;;;;2.67;2.57;;;17.20;99.90;;;;;;5050335;28;20193;-60
2021/05/23 08:54:22;;;;;;;2.70;2.60;;;17.00;99.90;;;;;;5049748;28;20801;-60
2021/05/23 08:56:49;;;;;;;2.60;2.50;;;17.00;99.90;;;;;;5050927;28;21036;-60
2021/05/23 08:59:16;;;;;;;2.60;2.50;;;17.10;99.90;;;;;;5049761;28;20630;-61
2021/05/23 09:01:42;;;;;;;2.20;2.10;;;17.30;99.90;;;;;;5049353;28;20443;-60
2021/05/23 09:04:13;;;;;;;3.80;2.47;;;17.50;99.90;;;;;;5050690;28;20462;-60
2021/05/23 09:06:40;;;;;;;2.60;2.40;;;17.50;99.90;;;;;;5049849;28;20762;-60
2021/05/23 09:09:08;;;;;;;2.77;2.57;;;17.40;99.90;;;;;;5048512;28;21069;-60
2021/05/23 09:11:35;;;;;;;2.87;2.77;;;17.60;99.90;;;;;;5050389;28;20426;-60
2021/05/23 09:14:00;;;;;;;2.83;2.67;;;17.80;99.90;;;;;;5051866;28;20884;-60
2021/05/23 09:16:35;;;;;;;3.10;2.67;;;18.00;99.90;;;;;;5048752;28;20463;-61
2021/05/23 09:19:00;;;;;;;2.77;2.57;;;17.70;99.90;;;;;;5049323;28;20939;-60
2021/05/23 09:21:30;;;;;;;3.07;2.87;;;17.80;99.90;;;;;;5050483;28;20413;-60
2021/05/23 09:23:58;;;;;;;3.00;2.80;;;17.90;99.90;;;;;;5050124;28;20230;-60
2021/05/23 09:26:26;;;;;;;2.40;2.30;;;18.40;99.90;;;;;;5049734;28;20467;-61
2021/05/23 09:28:53;;;;;;;2.80;2.60;;;19.30;99.90;;;;;;5049174;28;20971;-61
2021/05/23 09:31:24;;;;;;;2.73;2.63;;;20.30;99.90;;;;;;5052362;28;20446;-63
2021/05/23 09:33:52;;;;;;;2.80;2.60;;;21.20;99.90;;;;;;5048860;28;21223;-61
2021/05/23 09:36:22;;;;;;;2.40;2.30;;;21.40;99.90;;;;;;5048674;28;20447;-61
2021/05/23 09:39:03;;;;;;;2.30;2.17;;;21.10;99.90;;;;;;5049408;28;20430;-61
2021/05/23 09:41:35;;;;;;;2.30;2.20;;;20.60;99.90;;;;;;5057675;28;20426;-61
2021/05/23 09:44:20;;;;;;;2.80;2.60;;;19.90;99.90;;;;;;5045411;28;20471;-61
2021/05/23 09:46:50;;;;;;;2.77;2.57;;;19.40;99.90;;;;;;5045552;28;20413;-61
2021/05/23 09:49:16;;;;;;;3.60;3.40;;;18.90;99.90;;;;;;5039478;28;20834;-60
2021/05/23 09:51:53;;;;;;;2.80;2.60;;;18.70;99.90;;;;;;5048759;28;20435;-60
2021/05/23 09:54:20;;;;;;;2.53;2.33;;;19.20;99.90;;;;;;5049075;28;20427;-61
2021/05/23 09:56:46;;;;;;;2.90;2.80;;;19.80;99.90;;;;;;5049687;28;20456;-60
2021/05/23 09:59:26;;;;;;;2.50;2.40;;;19.50;99.90;;;;;;5048702;28;20422;-63
2021/05/23 10:02:04;;;;;;;2.43;2.33;;;20.20;99.90;;;;;;5048758;28;20243;-61
2021/05/23 10:04:30;;;;;;;2.80;2.67;;;20.60;99.90;;;;;;5049365;28;20523;-61
2021/05/23 10:07:00;;;;;;;2.90;2.80;;;20.70;99.90;;;;;;5049027;28;20511;-60
2021/05/23 10:09:27;;;;;;;2.50;2.40;;;21.30;99.90;;;;;;5049512;28;20774;-61
2021/05/23 10:11:53;;;;;;;2.30;2.20;;;21.30;99.90;;;;;;5047304;28;20428;-61
2021/05/23 10:14:19;;;;;;;2.70;2.60;;;20.90;99.90;;;;;;5049466;28;20419;-61
2021/05/23 10:16:49;;;;;;;2.33;2.23;;;20.60;99.90;;;;;;5047861;28;21036;-61
2021/05/23 10:19:17;;;;;;;2.43;2.33;;;19.90;99.90;;;;;;5048126;28;20715;-60
2021/05/23 10:21:46;;;;;;;2.50;2.40;;;19.80;99.90;;;;;;5047200;28;20496;-61
2021/05/23 10:24:13;;;;;;;2.80;2.70;;;20.00;99.90;;;;;;5048107;28;21165;-60
2021/05/23 10:26:40;;;;;;;2.80;2.60;;;19.60;99.90;;;;;;5048564;28;20507;-61
2021/05/23 10:29:06;;;;;;;3.20;2.90;;;19.60;99.90;;;;;;5048611;28;20438;-59
2021/05/23 10:31:35;;;;;;;2.90;2.80;;;19.30;99.90;;;;;;5048998;28;20429;-60
2021/05/23 10:34:02;;;;;;;2.70;2.53;;;19.60;99.90;;;;;;5049538;28;20972;-61
2021/05/23 10:36:41;;;;;;;2.80;2.60;;;20.30;99.90;;;;;;5048928;28;20470;-61
2021/05/23 10:39:11;;;;;;;2.80;2.60;;;21.10;99.90;;;;;;5047624;28;20747;-61
2021/05/23 10:41:37;;;;;;;3.03;2.30;;;21.20;99.90;;;;;;5049158;28;20534;-61
2021/05/23 10:44:08;;;;;;;2.80;2.60;;;20.80;99.90;;;;;;5047116;28;20464;-61
2021/05/23 10:46:52;;;;;;;2.20;2.10;;;20.30;99.90;;;;;;5047553;28;20426;-61
2021/05/23 10:49:18;;;;;;;2.80;2.60;;;19.60;99.90;;;;;;5047431;28;21053;-61
2021/05/23 10:51:52;;;;;;;2.43;2.33;;;19.90;99.90;;;;;;5047763;28;20427;-61
2021/05/23 10:54:18;;;;;;;2.57;2.47;;;20.70;99.90;;;;;;5048493;28;20488;-61
2021/05/23 10:56:45;;;;;;;2.50;2.30;;;20.90;99.90;;;;;;5048743;28;20495;-61
2021/05/23 10:59:12;;;;;;;2.60;2.50;;;20.80;99.90;;;;;;5047558;28;20177;-63
2021/05/23 11:01:54;;;;;;;2.53;2.33;;;20.40;99.90;;;;;;5049012;28;20420;-61
2021/05/23 11:04:24;;;;;;;2.30;2.20;;;19.90;99.90;;;;;;5047098;28;20461;-60
2021/05/23 11:06:50;;;;;;;2.50;2.40;;;19.60;99.90;;;;;;5047104;28;20429;-60
2021/05/23 11:09:21;;;;;;;2.93;2.83;;;19.70;99.90;;;;;;5045859;28;20547;-61
2021/05/23 11:11:47;;;;;;;2.80;2.70;;;20.20;99.90;;;;;;5048801;28;20427;-61
2021/05/23 11:14:12;;;;;;;3.03;2.93;;;20.90;99.90;;;;;;5049351;28;20782;-61
2021/05/23 11:16:45;;;;;;;2.70;2.27;;;22.00;99.90;;;;;;5048738;28;20517;-62
2021/05/23 11:19:12;;;;;;;2.70;2.60;;;22.80;99.90;;;;;;5050321;28;20200;-61
2021/05/23 11:21:45;;;;;;;2.80;2.60;;;22.70;99.90;;;;;;5045085;28;20516;-62
2021/05/23 11:24:12;;;;;;;2.70;2.60;;;22.50;99.90;;;;;;5050147;28;20965;-61
2021/05/23 11:26:39;;;;;;;2.70;2.60;;;22.60;99.90;;;;;;5047661;28;20430;-61
2021/05/23 11:29:06;;;;;;;3.00;2.77;;;23.10;99.90;;;;;;5047985;28;20577;-62
2021/05/23 11:31:33;;;;;;;2.33;2.23;;;23.90;99.90;;;;;;5049526;28;20805;-61
2021/05/23 11:34:00;;;;;;;3.30;2.37;;;23.90;99.90;;;;;;5048832;28;20420;-60
2021/05/23 11:36:32;;;;;;;2.60;2.40;;;23.20;99.90;;;;;;5053717;28;21183;-61
2021/05/23 11:39:01;;;;;;;3.10;2.90;;;21.90;99.90;;;;;;5046764;28;20432;-61
2021/05/23 11:41:32;;;;;;;4.57;4.23;;;21.10;99.90;;;;;;5048468;28;20420;-60
2021/05/23 11:43:59;;;;;;;4.10;3.90;;;20.00;99.90;;;;;;5048801;28;20477;-60
2021/05/23 11:46:26;;;;;;;3.60;3.30;;;18.80;99.90;;;;;;5048174;28;20456;-61
2021/05/23 11:48:52;;;;;;;3.33;3.13;;;17.70;99.90;;;;;;5049697;28;20438;-60
2021/05/23 11:51:24;;;;;;;3.10;2.97;;;17.20;99.90;;;;;;5049586;28;20474;-61
2021/05/23 11:53:53;;;;;;;3.07;2.87;;;17.00;99.90;;;;;;5052397;28;20506;-61
2021/05/23 11:56:22;;;;;;;2.70;2.50;;;16.80;99.90;;;;;;5054448;28;20423;-62
2021/05/23 11:58:58;;;;;;;2.70;2.60;;;16.80;99.90;;;;;;5046521;28;20470;-61
2021/05/23 12:01:27;;;;;;;3.10;2.80;;;16.70;99.90;;;;;;5047962;28;20438;-61
2021/05/23 12:04:14;;;;;;;2.20;2.10;;;16.80;99.90;;;;;;5050678;28;20438;-61
2021/05/23 12:06:45;;;;;;;2.90;2.80;;;17.10;99.90;;;;;;5050574;28;20461;-60
2021/05/23 12:09:16;;;;;;;3.43;3.23;;;17.50;99.90;;;;;;5051600;28;20442;-60
2021/05/23 12:11:48;;;;;;;2.10;2.00;;;18.00;99.90;;;;;;5051068;28;20647;-61
2021/05/23 12:14:36;;;;;;;2.40;2.30;;;17.80;99.90;;;;;;5051562;28;20464;-62
2021/05/23 12:17:10;;;;;;;2.93;2.73;;;17.80;99.90;;;;;;5054618;28;20565;-61
2021/05/23 12:19:46;;;;;;;2.47;2.37;;;17.40;99.90;;;;;;5052507;28;20419;-61
2021/05/23 12:22:13;;;;;;;2.70;2.50;;;17.30;99.90;;;;;;5051078;28;20415;-60
2021/05/23 12:24:40;;;;;;;2.90;2.67;;;17.50;99.90;;;;;;5051468;28;20449;-60
2021/05/23 12:27:06;;;;;;;2.40;2.20;;;18.50;99.90;;;;;;5051799;28;20424;-61
2021/05/23 12:29:31;;;;;;;2.60;2.50;;;20.00;99.90;;;;;;5053240;28;20431;-61
2021/05/23 12:31:57;;;;;;;2.20;2.10;;;21.20;99.90;;;;;;5071877;28;20920;-61
2021/05/23 12:34:22;;;;;;;2.93;2.73;;;22.20;99.90;;;;;;5058175;28;20188;-61
2021/05/23 12:36:48;;;;;;;2.80;2.70;;;23.30;99.90;;;;;;5051912;28;20698;-61
2021/05/23 12:39:21;;;;;;;2.53;2.33;;;23.60;99.90;;;;;;5052005;28;20715;-61
2021/05/23 12:41:47;;;;;;;2.73;2.53;;;23.50;99.90;;;;;;5050957;28;20584;-61
2021/05/23 12:44:20;;;;;;;2.70;2.60;;;23.80;99.90;;;;;;5050903;28;20482;-60
2021/05/23 12:46:47;;;;;;;2.53;2.43;;;23.00;99.90;;;;;;5050011;28;20511;-60
2021/05/23 12:49:22;;;;;;;2.90;2.80;;;23.30;99.90;;;;;;5051428;28;20428;-61
2021/05/23 12:51:49;;;;;;;3.17;3.00;;;24.30;99.90;;;;;;5051669;28;20423;-60
2021/05/23 12:54:28;;;;;;;3.27;3.10;;;25.50;99.90;;;;;;5050884;28;20517;-62